createdAt,value
2023-04-03T00:00:58.048Z,0.80
2023-04-03T00:03:25.429Z,0.90
2023-04-03T00:05:52.579Z,1.17
2023-04-03T00:08:20.322Z,1.00
2023-04-03T00:10:47.823Z,1.10
2023-04-03T00:13:15.563Z,1.37
2023-04-03T00:15:42.940Z,0.60
2023-04-03T00:18:10.444Z,0.70
2023-04-03T00:20:38.800Z,1.00
2023-04-03T00:23:06.487Z,1.30
2023-04-03T00:25:34.133Z,0.80
2023-04-03T00:28:01.514Z,0.80
2023-04-03T00:30:28.659Z,0.73
2023-04-03T00:32:55.915Z,0.97
2023-04-03T00:35:23.842Z,0.90
2023-04-03T00:37:55.353Z,0.90
2023-04-03T00:40:24.483Z,1.30
2023-04-03T00:42:57.439Z,0.80
2023-04-03T00:45:30.438Z,1.10
2023-04-03T00:48:00.807Z,0.77
2023-04-03T00:50:30.710Z,1.07
2023-04-03T00:52:58.961Z,1.10
2023-04-03T00:55:26.406Z,0.80
2023-04-03T00:57:55.642Z,0.80
2023-04-03T01:00:24.213Z,1.13
2023-04-03T01:02:52.651Z,1.00
2023-04-03T01:05:21.490Z,1.10
2023-04-03T01:07:50.380Z,1.23
2023-04-03T01:10:20.705Z,1.00
2023-04-03T01:12:51.180Z,1.40
2023-04-03T01:15:24.879Z,0.97
2023-04-03T01:17:54.256Z,0.90
2023-04-03T01:20:34.262Z,1.03
2023-04-03T01:23:13.237Z,0.90
2023-04-03T01:25:48.798Z,0.80
2023-04-03T01:28:32.353Z,1.00
2023-04-03T01:31:14.488Z,0.90
2023-04-03T01:33:41.910Z,0.97
2023-04-03T01:36:10.668Z,0.73
2023-04-03T01:38:37.851Z,0.90
2023-04-03T01:41:05.077Z,0.80
2023-04-03T01:43:32.206Z,0.90
2023-04-03T01:45:59.565Z,0.90
2023-04-03T01:48:26.834Z,1.10
2023-04-03T01:50:54.826Z,1.20
2023-04-03T01:53:22.169Z,0.90
2023-04-03T01:55:49.871Z,0.80
2023-04-03T01:58:17.196Z,0.80
2023-04-03T02:00:44.491Z,0.90
2023-04-03T02:03:11.707Z,0.80
2023-04-03T02:05:39.590Z,1.13
2023-04-03T02:08:06.945Z,1.10
2023-04-03T02:10:34.149Z,0.90
2023-04-03T02:13:01.325Z,1.00
2023-04-03T02:15:28.563Z,1.00
2023-04-03T02:17:55.935Z,1.10
2023-04-03T02:20:23.220Z,1.20
2023-04-03T02:22:50.434Z,1.37
2023-04-03T02:25:18.765Z,1.20
2023-04-03T02:27:46.031Z,1.03
2023-04-03T02:30:15.598Z,1.30
2023-04-03T02:32:43.527Z,1.40
2023-04-03T02:35:12.333Z,1.73
2023-04-03T02:37:39.620Z,1.40
2023-04-03T02:40:07.594Z,1.90
2023-04-03T02:42:34.845Z,1.80
2023-04-03T02:45:02.036Z,1.60
2023-04-03T02:47:29.345Z,1.50
2023-04-03T02:49:56.463Z,1.00
2023-04-03T02:52:23.634Z,1.50
2023-04-03T02:54:50.874Z,1.40
2023-04-03T02:57:18.060Z,1.00
2023-04-03T02:59:45.373Z,1.10
2023-04-03T03:02:12.649Z,1.40
2023-04-03T03:04:39.991Z,1.27
2023-04-03T03:07:07.266Z,1.50
2023-04-03T03:09:34.457Z,1.30
2023-04-03T03:12:01.688Z,1.33
2023-04-03T03:14:29.067Z,1.10
2023-04-03T03:16:56.220Z,1.37
2023-04-03T03:19:23.364Z,1.10
2023-04-03T03:21:51.189Z,1.70
2023-04-03T03:24:18.542Z,1.63
2023-04-03T03:26:45.758Z,1.63
2023-04-03T03:29:12.885Z,1.23
2023-04-03T03:31:40.103Z,1.40
2023-04-03T03:34:08.574Z,1.90
2023-04-03T03:36:35.770Z,1.57
2023-04-03T03:39:03.375Z,1.33
2023-04-03T03:41:30.673Z,1.50
2023-04-03T03:43:58.150Z,1.67
2023-04-03T03:46:25.447Z,2.00
2023-04-03T03:48:52.823Z,1.97
2023-04-03T03:51:20.242Z,1.93
2023-04-03T03:53:47.647Z,1.70
2023-04-03T03:56:14.885Z,1.60
2023-04-03T03:58:42.114Z,1.30
2023-04-03T04:01:09.644Z,1.53
2023-04-03T04:03:37.078Z,2.20
2023-04-03T04:06:04.541Z,1.67
2023-04-03T04:08:31.826Z,2.30
2023-04-03T04:10:59.240Z,1.57
2023-04-03T04:13:26.460Z,1.70
2023-04-03T04:15:53.692Z,1.93
2023-04-03T04:18:22.349Z,1.50
2023-04-03T04:20:49.834Z,1.40
2023-04-03T04:23:18.999Z,2.00
2023-04-03T04:25:47.859Z,1.83
2023-04-03T04:28:15.471Z,1.80
2023-04-03T04:30:43.137Z,1.50
2023-04-03T04:33:11.039Z,1.90
2023-04-03T04:35:38.639Z,1.60
2023-04-03T04:38:06.881Z,1.97
2023-04-03T04:40:34.225Z,1.70
2023-04-03T04:43:01.473Z,1.70
2023-04-03T04:45:28.717Z,1.80
2023-04-03T04:47:59.048Z,1.67
2023-04-03T04:50:26.304Z,1.70
2023-04-03T04:52:53.517Z,1.50
2023-04-03T04:55:21.628Z,1.90
2023-04-03T04:57:48.925Z,2.70
2023-04-03T05:00:16.991Z,1.87
2023-04-03T05:02:44.336Z,1.70
2023-04-03T05:05:11.682Z,1.67
2023-04-03T05:07:39.042Z,1.30
2023-04-03T05:10:07.000Z,1.27
2023-04-03T05:12:34.243Z,1.47
2023-04-03T05:15:01.487Z,1.47
2023-04-03T05:17:28.812Z,1.50
2023-04-03T05:19:56.105Z,1.60
2023-04-03T05:22:23.424Z,1.50
2023-04-03T05:24:50.649Z,1.57
2023-04-03T05:27:17.921Z,1.63
2023-04-03T05:29:45.568Z,1.50
2023-04-03T05:32:13.300Z,1.77
2023-04-03T05:34:40.511Z,1.70
2023-04-03T05:37:07.816Z,1.40
2023-04-03T05:39:35.297Z,1.97
2023-04-03T05:42:02.862Z,1.67
2023-04-03T05:44:30.221Z,1.47
2023-04-03T05:46:57.556Z,1.60
2023-04-03T05:49:24.792Z,1.17
2023-04-03T05:51:53.063Z,1.20
2023-04-03T05:54:24.467Z,1.10
2023-04-03T05:56:52.726Z,1.63
2023-04-03T05:59:21.586Z,1.57
2023-04-03T06:01:49.461Z,1.87
2023-04-03T06:04:17.144Z,1.70
2023-04-03T06:06:55.809Z,1.50
2023-04-03T06:09:25.870Z,2.07
2023-04-03T06:11:54.022Z,1.90
2023-04-03T06:14:21.267Z,1.97
2023-04-03T06:16:48.517Z,1.53
2023-04-03T06:19:16.650Z,1.80
2023-04-03T06:21:43.936Z,2.27
2023-04-03T06:24:15.647Z,1.80
2023-04-03T06:26:43.338Z,1.80
2023-04-03T06:29:10.778Z,1.47
2023-04-03T06:31:38.161Z,2.17
2023-04-03T06:34:07.210Z,2.43
2023-04-03T06:36:35.852Z,1.90
2023-04-03T06:39:04.158Z,1.77
2023-04-03T06:41:31.686Z,1.27
2023-04-03T06:43:59.541Z,0.90
2023-04-03T06:46:27.766Z,1.33
2023-04-03T06:48:55.233Z,1.30
2023-04-03T06:51:30.047Z,1.10
2023-04-03T06:54:00.825Z,0.87
2023-04-03T06:56:29.037Z,0.80
2023-04-03T06:58:58.656Z,0.80
2023-04-03T07:01:28.944Z,0.80
2023-04-03T07:03:56.904Z,1.00
2023-04-03T07:06:24.282Z,0.80
2023-04-03T07:08:51.546Z,0.93
2023-04-03T07:11:18.934Z,0.87
2023-04-03T07:13:46.222Z,0.80
2023-04-03T07:16:13.689Z,0.70
2023-04-03T07:18:41.058Z,0.70
2023-04-03T07:21:08.394Z,0.80
2023-04-03T07:23:35.680Z,0.80
2023-04-03T07:26:03.068Z,0.80
2023-04-03T07:28:30.785Z,0.73
2023-04-03T07:31:04.107Z,0.93
2023-04-03T07:33:32.196Z,0.80
2023-04-03T07:36:01.523Z,0.60
2023-04-03T07:38:29.047Z,0.70
2023-04-03T07:40:56.456Z,0.90
2023-04-03T07:43:25.741Z,0.70
2023-04-03T07:45:55.018Z,0.60
2023-04-03T07:48:24.409Z,0.77
2023-04-03T07:50:52.385Z,0.70
2023-04-03T07:53:19.956Z,0.60
2023-04-03T07:55:52.659Z,0.80
2023-04-03T07:58:20.076Z,0.60
2023-04-03T08:00:48.114Z,0.70
2023-04-03T08:03:17.763Z,0.60
2023-04-03T08:05:47.184Z,0.63
2023-04-03T08:08:18.614Z,0.70
2023-04-03T08:10:54.327Z,0.70
2023-04-03T08:13:22.318Z,0.70
2023-04-03T08:15:49.838Z,0.80
2023-04-03T08:18:17.744Z,0.70
2023-04-03T08:20:45.965Z,0.60
2023-04-03T08:23:13.606Z,0.70
2023-04-03T08:25:42.284Z,0.60
2023-04-03T08:28:11.028Z,0.60
2023-04-03T08:30:41.269Z,0.70
2023-04-03T08:33:09.658Z,0.70
2023-04-03T08:35:42.441Z,0.70
2023-04-03T08:38:10.549Z,2.03
2023-04-03T08:40:37.854Z,0.67
2023-04-03T08:43:29.640Z,1.17
2023-04-03T08:45:58.354Z,0.63
2023-04-03T08:48:37.789Z,0.60
2023-04-03T08:51:16.334Z,0.57
2023-04-03T08:54:28.088Z,0.70
2023-04-03T08:56:56.192Z,0.67
2023-04-03T08:59:38.194Z,0.67
2023-04-03T09:02:20.155Z,0.90
2023-04-03T09:04:47.395Z,0.70
2023-04-03T09:07:34.281Z,0.70
2023-04-03T09:10:04.158Z,0.70
2023-04-03T09:12:56.694Z,0.60
2023-04-03T09:15:37.724Z,0.80
2023-04-03T09:18:20.576Z,0.93
2023-04-03T09:21:13.405Z,0.90
2023-04-03T09:23:56.454Z,0.80
2023-04-03T09:26:39.076Z,0.70
2023-04-03T09:29:10.009Z,0.60
2023-04-03T09:31:43.136Z,0.60
2023-04-03T09:34:22.477Z,0.90
2023-04-03T09:36:54.951Z,0.60
2023-04-03T09:39:28.227Z,0.70
2023-04-03T09:42:06.159Z,0.97
2023-04-03T09:44:36.886Z,0.80
2023-04-03T09:47:37.427Z,0.60
2023-04-03T09:50:11.192Z,0.60
2023-04-03T09:52:39.422Z,0.57
2023-04-03T09:55:29.806Z,0.80
2023-04-03T09:58:00.848Z,0.80
2023-04-03T10:00:31.071Z,0.67
2023-04-03T10:03:01.522Z,0.60
2023-04-03T10:05:38.045Z,0.67
2023-04-03T10:08:10.492Z,0.70
2023-04-03T10:10:38.689Z,0.67
2023-04-03T10:13:10.567Z,0.70
2023-04-03T10:16:12.143Z,0.60
2023-04-03T10:19:04.277Z,0.80
2023-04-03T10:21:49.607Z,0.80
2023-04-03T10:24:32.900Z,0.90
2023-04-03T10:27:21.191Z,0.70
2023-04-03T10:30:27.250Z,0.80
2023-04-03T10:32:54.525Z,0.63
2023-04-03T10:35:54.726Z,1.00
2023-04-03T10:38:31.766Z,0.77
2023-04-03T10:41:04.217Z,0.80
2023-04-03T10:43:37.547Z,0.80
2023-04-03T10:46:19.631Z,0.83
2023-04-03T10:49:11.276Z,0.90
2023-04-03T10:52:06.087Z,0.97
2023-04-03T10:54:47.824Z,0.80
2023-04-03T10:57:15.286Z,0.80
2023-04-03T10:59:52.968Z,0.90
2023-04-03T11:02:23.381Z,0.90
2023-04-03T11:04:56.295Z,0.80
2023-04-03T11:07:27.610Z,0.80
2023-04-03T11:10:01.740Z,0.90
2023-04-03T11:12:37.547Z,0.73
2023-04-03T11:15:06.696Z,0.87
2023-04-03T11:17:47.609Z,0.90
2023-04-03T11:20:28.621Z,0.90
2023-04-03T11:23:05.078Z,0.80
2023-04-03T11:25:35.989Z,1.10
2023-04-03T11:28:06.210Z,1.00
2023-04-03T11:31:06.624Z,1.53
2023-04-03T11:33:56.848Z,1.00
2023-04-03T11:36:35.105Z,1.00
2023-04-03T11:39:26.893Z,0.90
2023-04-03T11:42:06.917Z,0.80
2023-04-03T11:44:39.634Z,1.00
2023-04-03T11:47:09.462Z,0.90
2023-04-03T11:49:54.874Z,0.73
2023-04-03T11:52:43.753Z,0.90
2023-04-03T11:55:23.625Z,0.93
2023-04-03T11:58:00.315Z,0.70
2023-04-03T12:00:47.414Z,1.00
2023-04-03T12:03:24.037Z,1.00
2023-04-03T12:05:58.419Z,0.93
2023-04-03T12:08:31.429Z,1.00
2023-04-03T12:11:14.288Z,1.00
2023-04-03T12:13:53.451Z,0.80
2023-04-03T12:16:20.676Z,0.93
2023-04-03T12:18:51.387Z,0.90
2023-04-03T12:21:20.171Z,0.80
2023-04-03T12:24:06.333Z,0.80
2023-04-03T12:27:02.863Z,1.10
2023-04-03T12:29:36.833Z,0.80
2023-04-03T12:32:25.554Z,0.93
2023-04-03T12:35:03.602Z,0.80
2023-04-03T12:37:49.682Z,1.00
2023-04-03T12:40:26.391Z,1.00
2023-04-03T12:43:38.281Z,0.80
2023-04-03T12:46:08.369Z,0.90
2023-04-03T12:48:48.349Z,1.00
2023-04-03T12:51:41.207Z,0.80
2023-04-03T12:54:32.843Z,0.87
2023-04-03T12:57:21.026Z,1.37
2023-04-03T12:59:49.042Z,0.73
2023-04-03T13:02:29.410Z,1.00
2023-04-03T13:05:00.693Z,0.80
2023-04-03T13:07:34.482Z,0.90
2023-04-03T13:10:07.881Z,1.07
2023-04-03T13:12:37.168Z,1.00
2023-04-03T13:15:31.124Z,1.00
2023-04-03T13:17:58.764Z,0.77
2023-04-03T13:20:32.389Z,0.70
2023-04-03T13:23:02.777Z,0.70
2023-04-03T13:25:36.158Z,0.70
2023-04-03T13:28:13.708Z,0.97
2023-04-03T13:30:54.787Z,0.80
2023-04-03T13:33:25.802Z,0.80
2023-04-03T13:36:08.647Z,0.70
2023-04-03T13:38:37.589Z,0.80
2023-04-03T13:41:27.761Z,0.83
2023-04-03T13:44:03.372Z,0.73
2023-04-03T13:46:34.105Z,0.80
2023-04-03T13:49:20.087Z,0.70
2023-04-03T13:51:56.973Z,0.80
2023-04-03T13:54:38.871Z,1.10
2023-04-03T13:57:15.969Z,0.80
2023-04-03T13:59:44.584Z,0.90
2023-04-03T14:02:21.442Z,0.87
2023-04-03T14:04:57.309Z,0.90
2023-04-03T14:07:25.754Z,0.80
2023-04-03T14:09:53.664Z,0.60
2023-04-03T14:12:40.224Z,0.90
2023-04-03T14:15:27.477Z,0.70
2023-04-03T14:17:56.476Z,0.80
2023-04-03T14:20:27.687Z,1.27
2023-04-03T14:22:55.105Z,0.93
2023-04-03T14:25:26.753Z,0.70
2023-04-03T14:27:54.868Z,0.60
2023-04-03T14:30:28.513Z,0.80
2023-04-03T14:32:56.685Z,0.90
2023-04-03T14:35:25.635Z,0.80
2023-04-03T14:37:55.022Z,0.90
2023-04-03T14:40:28.052Z,0.87
2023-04-03T14:42:56.494Z,0.60
2023-04-03T14:45:25.252Z,0.80
2023-04-03T14:47:55.128Z,0.80
2023-04-03T14:50:28.431Z,0.97
2023-04-03T14:52:59.579Z,0.80
2023-04-03T14:55:27.309Z,0.90
2023-04-03T14:57:54.962Z,0.70
2023-04-03T15:00:23.444Z,1.00
2023-04-03T15:02:51.121Z,0.53
2023-04-03T15:05:20.036Z,0.70
2023-04-03T15:07:57.472Z,0.83
2023-04-03T15:10:29.983Z,0.77
2023-04-03T15:12:57.912Z,0.70
2023-04-03T15:15:25.896Z,0.80
2023-04-03T15:17:56.055Z,0.60
2023-04-03T15:20:27.333Z,1.00
2023-04-03T15:22:57.215Z,1.00
2023-04-03T15:25:26.548Z,0.70
2023-04-03T15:27:55.430Z,0.77
2023-04-03T15:30:22.939Z,0.77
2023-04-03T15:32:50.845Z,0.80
2023-04-03T15:35:18.607Z,0.90
2023-04-03T15:37:46.029Z,0.70
2023-04-03T15:40:14.670Z,0.80
2023-04-03T15:42:42.011Z,0.80
2023-04-03T15:45:09.958Z,0.80
2023-04-03T15:47:37.492Z,0.60
2023-04-03T15:50:07.809Z,0.57
2023-04-03T15:52:35.413Z,0.67
2023-04-03T15:55:02.806Z,0.80
2023-04-03T16:00:02.532Z,0.80
2023-04-03T16:02:29.936Z,0.77
2023-04-03T16:04:57.315Z,0.70
2023-04-03T16:07:24.655Z,0.77
2023-04-03T16:09:52.750Z,0.90
2023-04-03T16:12:20.078Z,0.80
2023-04-03T16:14:47.347Z,0.80
2023-04-03T16:17:14.624Z,0.67
2023-04-03T16:19:42.133Z,0.80
2023-04-03T16:22:09.636Z,0.70
2023-04-03T16:24:36.929Z,0.90
2023-04-03T16:27:04.289Z,0.90
2023-04-03T16:29:31.991Z,0.77
2023-04-03T16:32:00.318Z,0.70
2023-04-03T16:34:28.150Z,0.60
2023-04-03T16:36:55.405Z,0.83
2023-04-03T16:39:22.992Z,0.73
2023-04-03T16:41:50.282Z,0.70
2023-04-03T16:44:17.602Z,0.80
2023-04-03T16:46:46.217Z,0.90
2023-04-03T16:49:14.913Z,1.10
2023-04-03T16:51:44.054Z,1.20
2023-04-03T16:54:12.770Z,0.73
2023-04-03T16:56:40.140Z,0.80
2023-04-03T16:59:08.368Z,1.00
2023-04-03T17:01:36.048Z,0.80
2023-04-03T17:04:03.329Z,0.90
2023-04-03T17:06:30.739Z,1.00
2023-04-03T17:08:58.104Z,1.17
2023-04-03T17:11:26.519Z,0.90
2023-04-03T17:13:53.773Z,1.00
2023-04-03T17:16:21.813Z,0.90
2023-04-03T17:18:49.229Z,1.40
2023-04-03T17:21:17.430Z,1.03
2023-04-03T17:23:48.110Z,1.00
2023-04-03T17:26:15.483Z,1.00
2023-04-03T17:28:44.785Z,0.83
2023-04-03T17:31:12.910Z,1.00
2023-04-03T17:33:40.185Z,1.00
2023-04-03T17:36:08.055Z,1.00
2023-04-03T17:38:35.906Z,1.10
2023-04-03T17:41:06.753Z,1.10
2023-04-03T17:43:34.913Z,1.00
2023-04-03T17:46:04.125Z,1.10
2023-04-03T17:48:33.169Z,1.10
2023-04-03T17:51:05.164Z,1.10
2023-04-03T17:53:32.495Z,1.27
2023-04-03T17:56:05.979Z,0.93
2023-04-03T17:58:33.208Z,1.30
2023-04-03T18:01:07.258Z,1.20
2023-04-03T18:03:34.535Z,1.40
2023-04-03T18:06:07.642Z,0.90
2023-04-03T18:08:52.770Z,1.17
2023-04-03T18:11:22.598Z,1.00
2023-04-03T18:13:49.982Z,1.10
2023-04-03T18:16:17.223Z,1.20
2023-04-03T18:18:44.582Z,1.10
2023-04-03T18:21:14.993Z,1.10
2023-04-03T18:23:47.583Z,1.23
2023-04-03T18:26:18.114Z,0.97
2023-04-03T18:28:53.387Z,1.23
2023-04-03T18:31:21.777Z,1.20
2023-04-03T18:33:49.089Z,1.47
2023-04-03T18:38:49.122Z,1.03
2023-04-03T18:41:16.568Z,1.40
2023-04-03T18:43:44.041Z,1.37
2023-04-03T18:46:11.681Z,1.60
2023-04-03T18:48:41.736Z,1.53
2023-04-03T18:51:12.977Z,1.20
2023-04-03T18:56:12.828Z,1.13
2023-04-03T18:58:40.195Z,1.20
2023-04-03T19:01:07.882Z,1.43
2023-04-03T19:03:37.200Z,1.10
2023-04-03T19:06:05.599Z,1.33
2023-04-03T19:08:33.847Z,1.23
2023-04-03T19:11:01.197Z,1.30
2023-04-03T19:13:28.549Z,1.10
2023-04-03T19:15:59.064Z,1.60
2023-04-03T19:18:30.425Z,1.23
2023-04-03T19:20:59.150Z,1.00
2023-04-03T19:23:26.984Z,1.23
2023-04-03T19:26:02.470Z,1.00
2023-04-03T19:28:30.126Z,0.93
2023-04-03T19:30:58.382Z,1.10
2023-04-03T19:33:26.442Z,1.43
2023-04-03T19:35:54.658Z,1.60
2023-04-03T19:38:21.844Z,1.10
2023-04-03T19:40:49.699Z,1.30
2023-04-03T19:43:17.395Z,1.23
2023-04-03T19:45:46.531Z,1.30
2023-04-03T19:48:14.366Z,1.00
2023-04-03T19:50:41.970Z,1.37
2023-04-03T19:53:11.272Z,1.20
2023-04-03T19:55:39.173Z,1.30
2023-04-03T19:58:07.100Z,1.30
2023-04-03T20:00:34.573Z,1.20
2023-04-03T20:03:02.038Z,1.30
2023-04-03T20:05:29.321Z,1.50
2023-04-03T20:07:56.652Z,1.33
2023-04-03T20:10:24.015Z,1.00
2023-04-03T20:12:51.388Z,1.30
2023-04-03T20:15:19.037Z,1.30
2023-04-03T20:17:46.397Z,1.30
2023-04-03T20:20:14.743Z,1.30
2023-04-03T20:22:42.071Z,1.57
2023-04-03T20:25:12.290Z,1.50
2023-04-03T20:27:41.012Z,1.87
2023-04-03T20:30:13.170Z,1.07
2023-04-03T20:32:40.575Z,1.37
2023-04-03T20:35:08.298Z,1.30
2023-04-03T20:37:36.156Z,1.40
2023-04-03T20:40:05.282Z,1.70
2023-04-03T20:42:32.662Z,1.30
2023-04-03T20:44:59.985Z,1.10
2023-04-03T20:47:28.095Z,1.13
2023-04-03T20:49:55.779Z,1.63
2023-04-03T20:52:23.039Z,1.13
2023-04-03T20:54:50.866Z,1.00
2023-04-03T20:57:18.532Z,1.23
2023-04-03T20:59:46.177Z,1.43
2023-04-03T21:02:13.527Z,1.23
2023-04-03T21:04:47.334Z,1.33
2023-04-03T21:07:52.343Z,1.33
2023-04-03T21:10:57.048Z,0.90
2023-04-03T21:14:01.884Z,0.97
2023-04-03T21:16:29.370Z,0.80
2023-04-03T21:19:20.006Z,0.80
2023-04-03T21:21:49.004Z,1.13
2023-04-03T21:24:18.076Z,1.00
2023-04-03T21:26:46.057Z,0.90
2023-04-03T21:29:13.941Z,1.00
2023-04-03T21:31:51.155Z,1.07
2023-04-03T21:34:20.252Z,0.90
2023-04-03T21:36:50.094Z,1.17
2023-04-03T21:39:17.466Z,1.10
2023-04-03T21:41:44.697Z,1.20
2023-04-03T21:44:11.950Z,0.97
2023-04-03T21:46:39.487Z,1.80
2023-04-03T21:49:07.691Z,1.23
2023-04-03T21:51:36.729Z,1.00
2023-04-03T21:54:04.223Z,1.30
2023-04-03T21:56:31.980Z,1.10
2023-04-03T21:59:03.100Z,1.10
2023-04-03T22:01:32.340Z,1.17
2023-04-03T22:04:00.130Z,0.90
2023-04-03T22:06:27.463Z,1.30
2023-04-03T22:08:57.027Z,1.10
2023-04-03T22:11:27.260Z,0.90
2023-04-03T22:13:55.659Z,1.20
2023-04-03T22:16:23.692Z,1.23
2023-04-03T22:18:55.077Z,0.80
2023-04-03T22:21:22.528Z,1.20
2023-04-03T22:23:49.906Z,1.00
2023-04-03T22:26:17.193Z,1.10
2023-04-03T22:28:46.585Z,1.13
2023-04-03T22:31:16.392Z,1.10
2023-04-03T22:33:45.615Z,1.30
2023-04-03T22:36:14.079Z,1.60
2023-04-03T22:38:44.969Z,0.90
2023-04-03T22:41:12.463Z,1.00
2023-04-03T22:43:40.142Z,1.10
2023-04-03T22:46:09.198Z,1.07
2023-04-03T22:48:37.385Z,1.10
2023-04-03T22:51:09.036Z,1.20
2023-04-03T22:53:36.960Z,1.10
2023-04-03T22:56:11.043Z,1.00
2023-04-03T22:58:39.177Z,1.20
2023-04-03T23:01:11.863Z,1.07
2023-04-03T23:03:40.473Z,1.20
2023-04-03T23:06:08.978Z,1.00
2023-04-03T23:08:38.968Z,1.10
2023-04-03T23:11:09.787Z,0.70
2023-04-03T23:13:37.415Z,0.90
2023-04-03T23:16:05.275Z,1.30
2023-04-03T23:18:33.065Z,1.10
2023-04-03T23:21:01.601Z,1.00
2023-04-03T23:23:29.187Z,1.60
2023-04-03T23:26:01.749Z,0.70
2023-04-03T23:28:29.926Z,0.83
2023-04-03T23:31:00.242Z,1.10
2023-04-03T23:33:28.332Z,0.70
2023-04-03T23:35:55.623Z,1.30
2023-04-03T23:38:22.838Z,0.90
2023-04-03T23:40:50.191Z,0.90
2023-04-03T23:43:17.395Z,0.90
2023-04-03T23:45:47.890Z,1.30
2023-04-03T23:48:15.368Z,1.00
2023-04-03T23:50:44.162Z,1.20
2023-04-03T23:53:13.590Z,1.10
2023-04-03T23:55:42.005Z,1.23
2023-04-03T23:58:09.693Z,1.30
